Chatsworth, California
Current Conditions -  °F | °C
As of 12:51 PM on Sunday 23 Nov 2014 (Local Time) from KVNY Reporting Station
Clear Clear  
Wind Chill: 75°   Ceiling: Unl
Heat Index: 75°   Visibility: 10mi
Dew Point: 10°   Wind: 22mph
Humidity: 8%   Direction: 20°NNE
Pressure: 30.11"   Gusts: 33mph
Location:  34.26°N, 118.6°W
Report Text: KVNY 232051Z 02019G29KT 10SM CLR 24/M12 A3011 RMK AO2 PK WND 01030/2012 SLP188 T02391122 56021
Loading
Personal Weather Stations






























Interactive Weather Map New forecast layout! Learn more

10-Day Weather Forecast

Advertisements
Track Severe Weather on mobile